sensor_id;sensor_type;location;lat;lon;timestamp;temperature;humidity
28460;DHT22;32528;45.712;9.192;2023-01-08T00:00:02;9.10;99.90
28460;DHT22;32528;45.712;9.192;2023-01-08T00:02:12;9.10;99.90
28460;DHT22;32528;45.712;9.192;2023-01-08T00:04:13;9.00;99.90
28460;DHT22;32528;45.712;9.192;2023-01-08T00:06:15;9.00;99.90
28460;DHT22;32528;45.712;9.192;2023-01-08T00:08:17;8.90;99.90
28460;DHT22;32528;45.712;9.192;2023-01-08T00:10:17;8.80;99.90
28460;DHT22;32528;45.712;9.192;2023-01-08T00:12:18;8.80;99.90
28460;DHT22;32528;45.712;9.192;2023-01-08T00:14:18;8.80;99.90
28460;DHT22;32528;45.712;9.192;2023-01-08T00:16:19;8.80;99.90
28460;DHT22;32528;45.712;9.192;2023-01-08T00:18:20;8.70;99.90
28460;DHT22;32528;45.712;9.192;2023-01-08T00:20:21;8.70;99.90
28460;DHT22;32528;45.712;9.192;2023-01-08T00:22:22;8.70;99.90
28460;DHT22;32528;45.712;9.192;2023-01-08T00:24:22;8.70;99.90
28460;DHT22;32528;45.712;9.192;2023-01-08T00:26:23;8.70;99.90
28460;DHT22;32528;45.712;9.192;2023-01-08T00:28:25;8.80;99.90
28460;DHT22;32528;45.712;9.192;2023-01-08T00:30:26;8.80;99.90
28460;DHT22;32528;45.712;9.192;2023-01-08T00:32:26;8.80;99.90
28460;DHT22;32528;45.712;9.192;2023-01-08T00:34:27;8.90;99.90
28460;DHT22;32528;45.712;9.192;2023-01-08T00:36:27;8.90;99.90
28460;DHT22;32528;45.712;9.192;2023-01-08T00:38:28;8.90;99.90
28460;DHT22;32528;45.712;9.192;2023-01-08T00:40:29;8.90;99.90
28460;DHT22;32528;45.712;9.192;2023-01-08T00:42:30;8.90;99.90
28460;DHT22;32528;45.712;9.192;2023-01-08T00:44:32;8.90;99.90
28460;DHT22;32528;45.712;9.192;2023-01-08T00:46:32;8.90;99.90
28460;DHT22;32528;45.712;9.192;2023-01-08T00:48:33;8.90;99.90
28460;DHT22;32528;45.712;9.192;2023-01-08T00:50:37;9.10;99.90
28460;DHT22;32528;45.712;9.192;2023-01-08T00:52:38;9.00;99.90
28460;DHT22;32528;45.712;9.192;2023-01-08T00:54:38;9.10;99.90
28460;DHT22;32528;45.712;9.192;2023-01-08T00:56:39;9.10;99.90
28460;DHT22;32528;45.712;9.192;2023-01-08T00:58:40;9.10;99.90
28460;DHT22;32528;45.712;9.192;2023-01-08T01:00:41;9.10;99.90
28460;DHT22;32528;45.712;9.192;2023-01-08T01:02:42;9.20;99.90
28460;DHT22;32528;45.712;9.192;2023-01-08T01:04:43;9.20;99.90
28460;DHT22;32528;45.712;9.192;2023-01-08T01:06:43;9.20;99.90
28460;DHT22;32528;45.712;9.192;2023-01-08T01:08:44;9.20;99.90
28460;DHT22;32528;45.712;9.192;2023-01-08T01:10:45;9.30;99.90
28460;DHT22;32528;45.712;9.192;2023-01-08T01:12:47;9.30;99.90
28460;DHT22;32528;45.712;9.192;2023-01-08T01:14:48;9.30;99.90
28460;DHT22;32528;45.712;9.192;2023-01-08T01:16:50;9.30;99.90
28460;DHT22;32528;45.712;9.192;2023-01-08T01:18:51;9.30;99.90
28460;DHT22;32528;45.712;9.192;2023-01-08T01:20:53;9.40;99.90
28460;DHT22;32528;45.712;9.192;2023-01-08T01:22:54;9.40;99.90
28460;DHT22;32528;45.712;9.192;2023-01-08T01:24:55;9.40;99.90
28460;DHT22;32528;45.712;9.192;2023-01-08T01:26:56;9.40;99.90
28460;DHT22;32528;45.712;9.192;2023-01-08T01:28:57;9.30;99.90
28460;DHT22;32528;45.712;9.192;2023-01-08T01:30:58;9.30;99.90
28460;DHT22;32528;45.712;9.192;2023-01-08T01:32:59;9.30;99.90
28460;DHT22;32528;45.712;9.192;2023-01-08T01:35:00;9.30;99.90
28460;DHT22;32528;45.712;9.192;2023-01-08T01:37:00;9.30;99.90
28460;DHT22;32528;45.712;9.192;2023-01-08T01:39:01;9.40;99.90
28460;DHT22;32528;45.712;9.192;2023-01-08T01:41:02;9.40;99.90
28460;DHT22;32528;45.712;9.192;2023-01-08T01:43:02;9.30;99.90
28460;DHT22;32528;45.712;9.192;2023-01-08T01:45:10;9.30;99.90
28460;DHT22;32528;45.712;9.192;2023-01-08T01:49:32;9.40;99.90
28460;DHT22;32528;45.712;9.192;2023-01-08T01:51:33;9.40;99.90
28460;DHT22;32528;45.712;9.192;2023-01-08T01:53:34;9.40;99.90
28460;DHT22;32528;45.712;9.192;2023-01-08T01:55:36;9.30;99.90
28460;DHT22;32528;45.712;9.192;2023-01-08T01:57:37;9.40;99.90
28460;DHT22;32528;45.712;9.192;2023-01-08T01:59:38;9.30;99.90
28460;DHT22;32528;45.712;9.192;2023-01-08T02:01:40;9.40;99.90
28460;DHT22;32528;45.712;9.192;2023-01-08T02:03:43;9.40;99.90
28460;DHT22;32528;45.712;9.192;2023-01-08T02:08:01;9.40;99.90
28460;DHT22;32528;45.712;9.192;2023-01-08T02:10:09;9.50;99.90
28460;DHT22;32528;45.712;9.192;2023-01-08T02:12:15;9.40;99.90
28460;DHT22;32528;45.712;9.192;2023-01-08T02:16:24;9.40;99.90
28460;DHT22;32528;45.712;9.192;2023-01-08T02:18:27;9.40;99.90
28460;DHT22;32528;45.712;9.192;2023-01-08T02:26:39;9.20;99.90
28460;DHT22;32528;45.712;9.192;2023-01-08T02:30:47;9.20;99.90
28460;DHT22;32528;45.712;9.192;2023-01-08T02:32:49;9.10;99.90
28460;DHT22;32528;45.712;9.192;2023-01-08T02:34:50;9.10;99.90
28460;DHT22;32528;45.712;9.192;2023-01-08T02:36:54;9.10;99.90
28460;DHT22;32528;45.712;9.192;2023-01-08T02:39:00;9.10;99.90
28460;DHT22;32528;45.712;9.192;2023-01-08T02:41:04;9.20;99.90
28460;DHT22;32528;45.712;9.192;2023-01-08T02:43:11;9.20;99.90
28460;DHT22;32528;45.712;9.192;2023-01-08T02:47:25;9.20;99.90
28460;DHT22;32528;45.712;9.192;2023-01-08T02:49:27;9.10;99.90
28460;DHT22;32528;45.712;9.192;2023-01-08T02:51:30;9.20;99.90
28460;DHT22;32528;45.712;9.192;2023-01-08T02:53:34;9.10;99.90
28460;DHT22;32528;45.712;9.192;2023-01-08T02:55:37;9.10;99.90
28460;DHT22;32528;45.712;9.192;2023-01-08T02:57:38;9.10;99.90
28460;DHT22;32528;45.712;9.192;2023-01-08T02:59:39;9.10;99.90
28460;DHT22;32528;45.712;9.192;2023-01-08T03:01:41;9.10;99.90
28460;DHT22;32528;45.712;9.192;2023-01-08T03:03:44;9.20;99.90
28460;DHT22;32528;45.712;9.192;2023-01-08T03:05:47;9.10;99.90
28460;DHT22;32528;45.712;9.192;2023-01-08T03:07:49;9.20;99.90
28460;DHT22;32528;45.712;9.192;2023-01-08T03:09:50;9.20;99.90
28460;DHT22;32528;45.712;9.192;2023-01-08T03:16:15;9.00;99.90
28460;DHT22;32528;45.712;9.192;2023-01-08T03:18:20;9.10;99.90
28460;DHT22;32528;45.712;9.192;2023-01-08T03:20:22;9.00;99.90
28460;DHT22;32528;45.712;9.192;2023-01-08T03:22:24;9.10;99.90
28460;DHT22;32528;45.712;9.192;2023-01-08T03:24:28;9.10;99.90
28460;DHT22;32528;45.712;9.192;2023-01-08T03:26:30;9.10;99.90
28460;DHT22;32528;45.712;9.192;2023-01-08T03:28:33;9.20;99.90
28460;DHT22;32528;45.712;9.192;2023-01-08T03:30:34;9.20;99.90
28460;DHT22;32528;45.712;9.192;2023-01-08T03:32:35;9.20;99.90
28460;DHT22;32528;45.712;9.192;2023-01-08T03:34:37;9.20;99.90
28460;DHT22;32528;45.712;9.192;2023-01-08T03:36:39;9.20;99.90
28460;DHT22;32528;45.712;9.192;2023-01-08T03:38:41;9.10;99.90
28460;DHT22;32528;45.712;9.192;2023-01-08T03:40:45;9.10;99.90
28460;DHT22;32528;45.712;9.192;2023-01-08T03:42:47;9.10;99.90
28460;DHT22;32528;45.712;9.192;2023-01-08T03:44:48;9.10;99.90
28460;DHT22;32528;45.712;9.192;2023-01-08T03:46:50;9.10;99.90
28460;DHT22;32528;45.712;9.192;2023-01-08T03:48:52;9.10;99.90
28460;DHT22;32528;45.712;9.192;2023-01-08T03:50:53;9.10;99.90
28460;DHT22;32528;45.712;9.192;2023-01-08T03:52:53;9.20;99.90
28460;DHT22;32528;45.712;9.192;2023-01-08T03:54:54;9.20;99.90
28460;DHT22;32528;45.712;9.192;2023-01-08T03:56:55;9.20;99.90
28460;DHT22;32528;45.712;9.192;2023-01-08T03:58:56;9.20;99.90
28460;DHT22;32528;45.712;9.192;2023-01-08T04:00:56;9.20;99.90
28460;DHT22;32528;45.712;9.192;2023-01-08T04:02:57;9.00;99.90
28460;DHT22;32528;45.712;9.192;2023-01-08T04:04:58;9.00;99.90
28460;DHT22;32528;45.712;9.192;2023-01-08T04:06:58;9.00;99.90
28460;DHT22;32528;45.712;9.192;2023-01-08T04:09:02;9.10;99.90
28460;DHT22;32528;45.712;9.192;2023-01-08T04:11:03;9.10;99.90
28460;DHT22;32528;45.712;9.192;2023-01-08T04:13:03;9.20;99.90
28460;DHT22;32528;45.712;9.192;2023-01-08T04:15:04;9.20;99.90
28460;DHT22;32528;45.712;9.192;2023-01-08T04:17:05;9.20;99.90
28460;DHT22;32528;45.712;9.192;2023-01-08T04:19:05;9.20;99.90
28460;DHT22;32528;45.712;9.192;2023-01-08T04:21:08;9.30;99.90
28460;DHT22;32528;45.712;9.192;2023-01-08T04:23:08;9.20;99.90
28460;DHT22;32528;45.712;9.192;2023-01-08T04:25:09;9.30;99.90
28460;DHT22;32528;45.712;9.192;2023-01-08T04:27:09;9.30;99.90
28460;DHT22;32528;45.712;9.192;2023-01-08T04:29:10;9.20;99.90
28460;DHT22;32528;45.712;9.192;2023-01-08T04:31:11;9.30;99.90
28460;DHT22;32528;45.712;9.192;2023-01-08T04:33:12;9.30;99.90
28460;DHT22;32528;45.712;9.192;2023-01-08T04:35:13;9.30;99.90
28460;DHT22;32528;45.712;9.192;2023-01-08T04:37:16;9.30;99.90
28460;DHT22;32528;45.712;9.192;2023-01-08T04:39:16;9.20;99.90
28460;DHT22;32528;45.712;9.192;2023-01-08T04:41:17;9.20;99.90
28460;DHT22;32528;45.712;9.192;2023-01-08T04:43:18;9.20;99.90
28460;DHT22;32528;45.712;9.192;2023-01-08T04:45:18;9.20;99.90
28460;DHT22;32528;45.712;9.192;2023-01-08T04:47:19;9.10;99.90
28460;DHT22;32528;45.712;9.192;2023-01-08T04:49:20;9.10;99.90
28460;DHT22;32528;45.712;9.192;2023-01-08T04:51:20;9.10;99.90
28460;DHT22;32528;45.712;9.192;2023-01-08T04:53:22;9.10;99.90
28460;DHT22;32528;45.712;9.192;2023-01-08T04:55:23;9.20;99.90
28460;DHT22;32528;45.712;9.192;2023-01-08T04:57:23;9.20;99.90
28460;DHT22;32528;45.712;9.192;2023-01-08T04:59:24;9.20;99.90
28460;DHT22;32528;45.712;9.192;2023-01-08T05:01:25;9.20;99.90
28460;DHT22;32528;45.712;9.192;2023-01-08T05:03:26;9.20;99.90
28460;DHT22;32528;45.712;9.192;2023-01-08T05:05:26;9.20;99.90
28460;DHT22;32528;45.712;9.192;2023-01-08T05:07:27;9.20;99.90
28460;DHT22;32528;45.712;9.192;2023-01-08T05:09:28;9.30;99.90
28460;DHT22;32528;45.712;9.192;2023-01-08T05:11:28;9.20;99.90
28460;DHT22;32528;45.712;9.192;2023-01-08T05:13:29;9.20;99.90
28460;DHT22;32528;45.712;9.192;2023-01-08T05:15:29;9.20;99.90
28460;DHT22;32528;45.712;9.192;2023-01-08T05:17:31;9.40;99.90
28460;DHT22;32528;45.712;9.192;2023-01-08T05:19:32;9.30;99.90
28460;DHT22;32528;45.712;9.192;2023-01-08T05:21:32;9.30;99.90
28460;DHT22;32528;45.712;9.192;2023-01-08T05:23:33;9.30;99.90
28460;DHT22;32528;45.712;9.192;2023-01-08T05:25:34;9.30;99.90
28460;DHT22;32528;45.712;9.192;2023-01-08T05:27:34;9.30;99.90
28460;DHT22;32528;45.712;9.192;2023-01-08T05:29:36;9.30;99.90
28460;DHT22;32528;45.712;9.192;2023-01-08T05:31:36;9.30;99.90
28460;DHT22;32528;45.712;9.192;2023-01-08T05:33:37;9.30;99.90
28460;DHT22;32528;45.712;9.192;2023-01-08T05:35:38;9.40;99.90
28460;DHT22;32528;45.712;9.192;2023-01-08T05:37:40;9.40;99.90
28460;DHT22;32528;45.712;9.192;2023-01-08T05:39:41;9.30;99.90
28460;DHT22;32528;45.712;9.192;2023-01-08T05:41:41;9.30;99.90
28460;DHT22;32528;45.712;9.192;2023-01-08T05:43:42;9.30;99.90
28460;DHT22;32528;45.712;9.192;2023-01-08T05:45:43;9.30;99.90
28460;DHT22;32528;45.712;9.192;2023-01-08T05:47:44;9.30;99.90
28460;DHT22;32528;45.712;9.192;2023-01-08T05:49:44;9.40;99.90
28460;DHT22;32528;45.712;9.192;2023-01-08T05:51:45;9.40;99.90
28460;DHT22;32528;45.712;9.192;2023-01-08T05:53:45;9.40;99.90
28460;DHT22;32528;45.712;9.192;2023-01-08T05:55:46;9.40;99.90
28460;DHT22;32528;45.712;9.192;2023-01-08T05:57:47;9.40;99.90
28460;DHT22;32528;45.712;9.192;2023-01-08T05:59:47;9.40;99.90
28460;DHT22;32528;45.712;9.192;2023-01-08T06:01:48;9.40;99.90
28460;DHT22;32528;45.712;9.192;2023-01-08T06:03:48;9.40;99.90
28460;DHT22;32528;45.712;9.192;2023-01-08T06:05:50;9.50;99.90
28460;DHT22;32528;45.712;9.192;2023-01-08T06:07:51;9.50;99.90
28460;DHT22;32528;45.712;9.192;2023-01-08T06:09:51;9.50;99.90
28460;DHT22;32528;45.712;9.192;2023-01-08T06:11:52;9.50;99.90
28460;DHT22;32528;45.712;9.192;2023-01-08T06:13:53;9.50;99.90
28460;DHT22;32528;45.712;9.192;2023-01-08T06:15:53;9.50;99.90
28460;DHT22;32528;45.712;9.192;2023-01-08T06:17:54;9.40;99.90
28460;DHT22;32528;45.712;9.192;2023-01-08T06:19:55;9.40;99.90
28460;DHT22;32528;45.712;9.192;2023-01-08T06:21:55;9.30;99.90
28460;DHT22;32528;45.712;9.192;2023-01-08T06:23:56;9.30;99.90
28460;DHT22;32528;45.712;9.192;2023-01-08T06:25:58;9.30;99.90
28460;DHT22;32528;45.712;9.192;2023-01-08T06:27:59;9.20;99.90
28460;DHT22;32528;45.712;9.192;2023-01-08T06:30:00;9.20;99.90
28460;DHT22;32528;45.712;9.192;2023-01-08T06:32:01;9.20;99.90
28460;DHT22;32528;45.712;9.192;2023-01-08T06:34:01;9.30;99.90
28460;DHT22;32528;45.712;9.192;2023-01-08T06:36:02;9.30;99.90
28460;DHT22;32528;45.712;9.192;2023-01-08T06:38:04;9.30;99.90
28460;DHT22;32528;45.712;9.192;2023-01-08T06:40:04;9.30;99.90
28460;DHT22;32528;45.712;9.192;2023-01-08T06:42:07;9.30;99.90
28460;DHT22;32528;45.712;9.192;2023-01-08T06:44:08;9.20;99.90
28460;DHT22;32528;45.712;9.192;2023-01-08T06:46:08;9.20;99.90
28460;DHT22;32528;45.712;9.192;2023-01-08T06:48:09;9.20;99.90
28460;DHT22;32528;45.712;9.192;2023-01-08T06:50:10;9.20;99.90
28460;DHT22;32528;45.712;9.192;2023-01-08T06:52:11;9.20;99.90
28460;DHT22;32528;45.712;9.192;2023-01-08T06:54:12;9.20;99.90
28460;DHT22;32528;45.712;9.192;2023-01-08T06:56:13;9.20;99.90
28460;DHT22;32528;45.712;9.192;2023-01-08T06:58:13;9.30;99.90
28460;DHT22;32528;45.712;9.192;2023-01-08T07:00:14;9.20;99.90
28460;DHT22;32528;45.712;9.192;2023-01-08T07:02:17;9.20;99.90
28460;DHT22;32528;45.712;9.192;2023-01-08T07:04:18;9.20;99.90
28460;DHT22;32528;45.712;9.192;2023-01-08T07:06:20;9.20;99.90
28460;DHT22;32528;45.712;9.192;2023-01-08T07:08:21;9.20;99.90
28460;DHT22;32528;45.712;9.192;2023-01-08T07:10:22;9.20;99.90
28460;DHT22;32528;45.712;9.192;2023-01-08T07:12:23;9.30;99.90
28460;DHT22;32528;45.712;9.192;2023-01-08T07:14:24;9.30;99.90
28460;DHT22;32528;45.712;9.192;2023-01-08T07:16:25;9.30;99.90
28460;DHT22;32528;45.712;9.192;2023-01-08T07:18:26;9.30;99.90
28460;DHT22;32528;45.712;9.192;2023-01-08T07:20:27;9.30;99.90
28460;DHT22;32528;45.712;9.192;2023-01-08T07:22:27;9.30;99.90
28460;DHT22;32528;45.712;9.192;2023-01-08T07:24:28;9.30;99.90
28460;DHT22;32528;45.712;9.192;2023-01-08T07:26:28;9.40;99.90
28460;DHT22;32528;45.712;9.192;2023-01-08T07:28:29;9.30;99.90
28460;DHT22;32528;45.712;9.192;2023-01-08T07:30:31;9.40;99.90
28460;DHT22;32528;45.712;9.192;2023-01-08T07:32:31;9.40;99.90
28460;DHT22;32528;45.712;9.192;2023-01-08T07:34:32;9.40;99.90
28460;DHT22;32528;45.712;9.192;2023-01-08T07:36:34;9.40;99.90
28460;DHT22;32528;45.712;9.192;2023-01-08T07:38:34;9.40;99.90
28460;DHT22;32528;45.712;9.192;2023-01-08T07:40:35;9.40;99.90
28460;DHT22;32528;45.712;9.192;2023-01-08T07:42:35;9.40;99.90
28460;DHT22;32528;45.712;9.192;2023-01-08T07:44:36;9.50;99.90
28460;DHT22;32528;45.712;9.192;2023-01-08T07:46:37;9.50;99.90
28460;DHT22;32528;45.712;9.192;2023-01-08T07:48:38;9.50;99.90
28460;DHT22;32528;45.712;9.192;2023-01-08T07:50:39;9.40;99.90
28460;DHT22;32528;45.712;9.192;2023-01-08T07:52:39;9.40;99.90
28460;DHT22;32528;45.712;9.192;2023-01-08T07:54:40;9.40;99.90
28460;DHT22;32528;45.712;9.192;2023-01-08T07:56:41;9.40;99.90
28460;DHT22;32528;45.712;9.192;2023-01-08T07:58:41;9.40;99.90
28460;DHT22;32528;45.712;9.192;2023-01-08T08:00:42;9.40;99.90
28460;DHT22;32528;45.712;9.192;2023-01-08T08:02:42;9.40;99.90
28460;DHT22;32528;45.712;9.192;2023-01-08T08:04:43;9.50;99.90
28460;DHT22;32528;45.712;9.192;2023-01-08T08:06:44;9.50;99.90
28460;DHT22;32528;45.712;9.192;2023-01-08T08:08:44;9.50;99.90
28460;DHT22;32528;45.712;9.192;2023-01-08T08:10:45;9.50;99.90
28460;DHT22;32528;45.712;9.192;2023-01-08T08:12:46;9.50;99.90
28460;DHT22;32528;45.712;9.192;2023-01-08T08:14:47;9.50;99.90
28460;DHT22;32528;45.712;9.192;2023-01-08T08:16:49;9.50;99.90
28460;DHT22;32528;45.712;9.192;2023-01-08T08:18:49;9.50;99.90
28460;DHT22;32528;45.712;9.192;2023-01-08T08:20:50;9.50;99.90
28460;DHT22;32528;45.712;9.192;2023-01-08T08:22:51;9.50;99.90
28460;DHT22;32528;45.712;9.192;2023-01-08T08:24:52;9.50;99.90
28460;DHT22;32528;45.712;9.192;2023-01-08T08:26:52;9.50;99.90
28460;DHT22;32528;45.712;9.192;2023-01-08T08:28:53;9.50;99.90
28460;DHT22;32528;45.712;9.192;2023-01-08T08:30:54;9.50;99.90
28460;DHT22;32528;45.712;9.192;2023-01-08T08:32:56;9.50;99.90
28460;DHT22;32528;45.712;9.192;2023-01-08T08:34:58;9.50;99.90
28460;DHT22;32528;45.712;9.192;2023-01-08T08:36:59;9.60;99.90
28460;DHT22;32528;45.712;9.192;2023-01-08T08:39:00;9.60;99.90
28460;DHT22;32528;45.712;9.192;2023-01-08T08:41:01;9.60;99.90
28460;DHT22;32528;45.712;9.192;2023-01-08T08:43:02;9.50;99.90
28460;DHT22;32528;45.712;9.192;2023-01-08T08:45:03;9.50;99.90
28460;DHT22;32528;45.712;9.192;2023-01-08T08:47:07;9.50;99.90
28460;DHT22;32528;45.712;9.192;2023-01-08T08:49:10;9.60;99.90
28460;DHT22;32528;45.712;9.192;2023-01-08T08:51:11;9.60;99.90
28460;DHT22;32528;45.712;9.192;2023-01-08T08:53:12;9.60;99.90
28460;DHT22;32528;45.712;9.192;2023-01-08T08:55:14;9.60;99.90
28460;DHT22;32528;45.712;9.192;2023-01-08T08:57:16;9.60;99.90
28460;DHT22;32528;45.712;9.192;2023-01-08T08:59:17;9.60;99.90
28460;DHT22;32528;45.712;9.192;2023-01-08T09:01:17;9.60;99.90
28460;DHT22;32528;45.712;9.192;2023-01-08T09:03:18;9.70;99.90
28460;DHT22;32528;45.712;9.192;2023-01-08T09:05:19;9.70;99.90
28460;DHT22;32528;45.712;9.192;2023-01-08T09:07:19;9.60;99.90
28460;DHT22;32528;45.712;9.192;2023-01-08T09:09:20;9.50;99.90
28460;DHT22;32528;45.712;9.192;2023-01-08T09:11:20;9.50;99.90
28460;DHT22;32528;45.712;9.192;2023-01-08T09:13:21;9.60;99.90
28460;DHT22;32528;45.712;9.192;2023-01-08T09:15:22;9.60;99.90
28460;DHT22;32528;45.712;9.192;2023-01-08T09:17:22;9.60;99.90
28460;DHT22;32528;45.712;9.192;2023-01-08T09:19:24;9.70;99.90
28460;DHT22;32528;45.712;9.192;2023-01-08T09:21:25;9.70;99.90
28460;DHT22;32528;45.712;9.192;2023-01-08T09:23:25;9.70;99.90
28460;DHT22;32528;45.712;9.192;2023-01-08T09:25:26;9.70;99.90
28460;DHT22;32528;45.712;9.192;2023-01-08T09:27:27;9.80;99.90
28460;DHT22;32528;45.712;9.192;2023-01-08T09:29:28;9.90;99.90
28460;DHT22;32528;45.712;9.192;2023-01-08T09:31:28;9.90;99.90
28460;DHT22;32528;45.712;9.192;2023-01-08T09:33:29;9.80;99.90
28460;DHT22;32528;45.712;9.192;2023-01-08T09:35:30;9.80;99.90
28460;DHT22;32528;45.712;9.192;2023-01-08T09:37:31;9.80;99.90
28460;DHT22;32528;45.712;9.192;2023-01-08T09:39:33;9.80;99.90
28460;DHT22;32528;45.712;9.192;2023-01-08T09:41:39;9.70;99.90
28460;DHT22;32528;45.712;9.192;2023-01-08T09:43:41;9.70;99.90
28460;DHT22;32528;45.712;9.192;2023-01-08T09:45:43;9.70;99.90
28460;DHT22;32528;45.712;9.192;2023-01-08T09:47:45;9.70;99.90
28460;DHT22;32528;45.712;9.192;2023-01-08T09:49:45;10.20;99.90
28460;DHT22;32528;45.712;9.192;2023-01-08T09:51:47;10.70;99.90
28460;DHT22;32528;45.712;9.192;2023-01-08T09:53:54;11.20;99.90
28460;DHT22;32528;45.712;9.192;2023-01-08T09:55:57;11.50;99.90
28460;DHT22;32528;45.712;9.192;2023-01-08T09:57:58;11.80;99.90
28460;DHT22;32528;45.712;9.192;2023-01-08T09:59:59;11.80;99.90
28460;DHT22;32528;45.712;9.192;2023-01-08T10:02:00;11.60;99.90
28460;DHT22;32528;45.712;9.192;2023-01-08T10:06:14;11.10;99.90
28460;DHT22;32528;45.712;9.192;2023-01-08T10:08:15;10.80;99.90
28460;DHT22;32528;45.712;9.192;2023-01-08T10:10:23;10.70;99.90
28460;DHT22;32528;45.712;9.192;2023-01-08T10:12:29;10.60;99.90
28460;DHT22;32528;45.712;9.192;2023-01-08T10:14:31;10.60;99.90
28460;DHT22;32528;45.712;9.192;2023-01-08T10:16:34;10.50;99.90
28460;DHT22;32528;45.712;9.192;2023-01-08T10:18:37;10.50;99.90
28460;DHT22;32528;45.712;9.192;2023-01-08T10:20:41;10.40;99.90
28460;DHT22;32528;45.712;9.192;2023-01-08T10:22:42;10.40;99.90
28460;DHT22;32528;45.712;9.192;2023-01-08T10:24:43;10.40;99.90
28460;DHT22;32528;45.712;9.192;2023-01-08T10:26:44;10.40;99.90
28460;DHT22;32528;45.712;9.192;2023-01-08T10:28:47;10.20;99.90
28460;DHT22;32528;45.712;9.192;2023-01-08T10:30:47;10.20;99.90
28460;DHT22;32528;45.712;9.192;2023-01-08T10:32:50;10.10;99.90
28460;DHT22;32528;45.712;9.192;2023-01-08T10:34:52;10.10;99.90
28460;DHT22;32528;45.712;9.192;2023-01-08T10:36:55;10.10;99.90
28460;DHT22;32528;45.712;9.192;2023-01-08T10:38:56;10.10;99.90
28460;DHT22;32528;45.712;9.192;2023-01-08T10:40:59;10.00;99.90
28460;DHT22;32528;45.712;9.192;2023-01-08T10:43:04;10.00;99.90
28460;DHT22;32528;45.712;9.192;2023-01-08T10:45:10;10.00;99.90
28460;DHT22;32528;45.712;9.192;2023-01-08T10:47:12;9.90;99.90
28460;DHT22;32528;45.712;9.192;2023-01-08T10:49:31;9.90;99.90
28460;DHT22;32528;45.712;9.192;2023-01-08T10:51:32;10.00;99.90
28460;DHT22;32528;45.712;9.192;2023-01-08T10:53:33;10.00;99.90
28460;DHT22;32528;45.712;9.192;2023-01-08T10:55:41;10.00;99.90
28460;DHT22;32528;45.712;9.192;2023-01-08T10:57:42;10.10;99.90
28460;DHT22;32528;45.712;9.192;2023-01-08T10:59:52;10.00;99.90
28460;DHT22;32528;45.712;9.192;2023-01-08T11:01:54;10.00;99.90
28460;DHT22;32528;45.712;9.192;2023-01-08T11:03:56;10.00;99.90
28460;DHT22;32528;45.712;9.192;2023-01-08T11:05:58;10.10;99.90
28460;DHT22;32528;45.712;9.192;2023-01-08T11:07:58;10.00;99.90
28460;DHT22;32528;45.712;9.192;2023-01-08T11:10:00;10.10;99.90
28460;DHT22;32528;45.712;9.192;2023-01-08T11:12:01;10.00;99.90
28460;DHT22;32528;45.712;9.192;2023-01-08T11:14:03;9.90;99.90
28460;DHT22;32528;45.712;9.192;2023-01-08T11:16:05;9.90;99.90
28460;DHT22;32528;45.712;9.192;2023-01-08T11:18:10;9.90;99.90
28460;DHT22;32528;45.712;9.192;2023-01-08T11:20:22;9.90;99.90
28460;DHT22;32528;45.712;9.192;2023-01-08T11:22:23;10.00;99.90
28460;DHT22;32528;45.712;9.192;2023-01-08T11:24:28;10.00;99.90
28460;DHT22;32528;45.712;9.192;2023-01-08T11:26:29;10.00;99.90
28460;DHT22;32528;45.712;9.192;2023-01-08T11:30:45;10.00;99.90
28460;DHT22;32528;45.712;9.192;2023-01-08T11:35:24;9.90;99.90
28460;DHT22;32528;45.712;9.192;2023-01-08T11:37:26;9.90;99.90
28460;DHT22;32528;45.712;9.192;2023-01-08T11:39:27;10.00;99.90
28460;DHT22;32528;45.712;9.192;2023-01-08T11:44:00;9.90;99.90
28460;DHT22;32528;45.712;9.192;2023-01-08T11:51:23;9.80;99.90
28460;DHT22;32528;45.712;9.192;2023-01-08T11:53:27;9.80;99.90
28460;DHT22;32528;45.712;9.192;2023-01-08T11:57:47;9.90;99.90
28460;DHT22;32528;45.712;9.192;2023-01-08T12:15:06;9.90;99.90
28460;DHT22;32528;45.712;9.192;2023-01-08T12:21:42;9.80;99.90
28460;DHT22;32528;45.712;9.192;2023-01-08T12:28:12;9.50;99.90
28460;DHT22;32528;45.712;9.192;2023-01-08T12:32:30;9.40;99.90
28460;DHT22;32528;45.712;9.192;2023-01-08T12:36:38;9.10;99.90
28460;DHT22;32528;45.712;9.192;2023-01-08T12:38:41;9.00;99.90
28460;DHT22;32528;45.712;9.192;2023-01-08T12:40:45;8.80;99.90
28460;DHT22;32528;45.712;9.192;2023-01-08T12:42:47;9.00;99.90
28460;DHT22;32528;45.712;9.192;2023-01-08T12:44:47;9.10;99.90
28460;DHT22;32528;45.712;9.192;2023-01-08T12:46:48;9.10;99.90
28460;DHT22;32528;45.712;9.192;2023-01-08T12:48:50;9.00;99.90
28460;DHT22;32528;45.712;9.192;2023-01-08T12:51:09;9.10;99.90
28460;DHT22;32528;45.712;9.192;2023-01-08T12:57:26;9.10;99.90
28460;DHT22;32528;45.712;9.192;2023-01-08T13:03:35;9.30;99.90
28460;DHT22;32528;45.712;9.192;2023-01-08T13:05:36;9.40;99.90
28460;DHT22;32528;45.712;9.192;2023-01-08T13:07:40;9.40;99.90
28460;DHT22;32528;45.712;9.192;2023-01-08T13:09:42;9.50;99.90
28460;DHT22;32528;45.712;9.192;2023-01-08T13:11:42;9.50;99.90
28460;DHT22;32528;45.712;9.192;2023-01-08T13:13:57;9.40;99.90
28460;DHT22;32528;45.712;9.192;2023-01-08T13:16:05;9.20;99.90
28460;DHT22;32528;45.712;9.192;2023-01-08T13:18:14;9.20;99.90
28460;DHT22;32528;45.712;9.192;2023-01-08T13:20:19;9.30;99.90
28460;DHT22;32528;45.712;9.192;2023-01-08T13:26:29;9.30;99.90
28460;DHT22;32528;45.712;9.192;2023-01-08T13:34:41;9.40;99.90
28460;DHT22;32528;45.712;9.192;2023-01-08T13:36:42;9.40;99.90
28460;DHT22;32528;45.712;9.192;2023-01-08T13:38:43;9.40;99.90
28460;DHT22;32528;45.712;9.192;2023-01-08T13:42:44;9.40;99.90
28460;DHT22;32528;45.712;9.192;2023-01-08T13:44:49;9.40;99.90
28460;DHT22;32528;45.712;9.192;2023-01-08T13:46:58;9.30;99.90
28460;DHT22;32528;45.712;9.192;2023-01-08T13:49:00;9.30;99.90
28460;DHT22;32528;45.712;9.192;2023-01-08T13:51:02;9.40;99.90
28460;DHT22;32528;45.712;9.192;2023-01-08T13:53:03;9.50;99.90
28460;DHT22;32528;45.712;9.192;2023-01-08T13:55:04;9.50;99.90
28460;DHT22;32528;45.712;9.192;2023-01-08T13:57:11;9.60;99.90
28460;DHT22;32528;45.712;9.192;2023-01-08T13:59:18;9.60;99.90
28460;DHT22;32528;45.712;9.192;2023-01-08T14:01:20;9.60;99.90
28460;DHT22;32528;45.712;9.192;2023-01-08T14:05:29;9.50;99.90
28460;DHT22;32528;45.712;9.192;2023-01-08T14:07:31;9.40;99.90
28460;DHT22;32528;45.712;9.192;2023-01-08T14:09:31;9.50;99.90
28460;DHT22;32528;45.712;9.192;2023-01-08T14:11:42;9.60;99.90
28460;DHT22;32528;45.712;9.192;2023-01-08T14:13:43;9.60;99.90
28460;DHT22;32528;45.712;9.192;2023-01-08T14:15:44;9.60;99.90
28460;DHT22;32528;45.712;9.192;2023-01-08T14:17:45;9.60;99.90
28460;DHT22;32528;45.712;9.192;2023-01-08T14:19:46;9.60;99.90
28460;DHT22;32528;45.712;9.192;2023-01-08T14:21:48;9.60;99.90
28460;DHT22;32528;45.712;9.192;2023-01-08T14:23:49;9.70;99.90
28460;DHT22;32528;45.712;9.192;2023-01-08T14:25:51;9.80;99.90
28460;DHT22;32528;45.712;9.192;2023-01-08T14:27:57;9.70;99.90
28460;DHT22;32528;45.712;9.192;2023-01-08T14:29:58;9.70;99.90